sensor_id;sensor_type;location;lat;lon;timestamp;P1;durP1;ratioP1;P2;durP2;ratioP2
35675;SDS011;21790;42.668;23.298;2022-12-20T04:48:30;20.25;;;7.18;;
35675;SDS011;21790;42.668;23.298;2022-12-20T04:51:08;17.67;;;7.85;;
35675;SDS011;21790;42.668;23.298;2022-12-20T04:53:42;20.02;;;9.02;;
35675;SDS011;21790;42.668;23.298;2022-12-20T04:56:15;21.50;;;8.60;;
35675;SDS011;21790;42.668;23.298;2022-12-20T04:58:42;21.27;;;7.65;;
35675;SDS011;21790;42.668;23.298;2022-12-20T05:01:08;20.10;;;7.35;;
35675;SDS011;21790;42.668;23.298;2022-12-20T05:03:35;20.00;;;8.63;;
35675;SDS011;21790;42.668;23.298;2022-12-20T05:06:04;23.83;;;9.05;;
35675;SDS011;21790;42.668;23.298;2022-12-20T05:08:46;19.67;;;9.35;;
35675;SDS011;21790;42.668;23.298;2022-12-20T10:00:51;17.65;;;8.88;;
35675;SDS011;21790;42.668;23.298;2022-12-20T10:06:42;19.67;;;8.10;;
35675;SDS011;21790;42.668;23.298;2022-12-20T10:23:18;13.43;;;6.80;;
35675;SDS011;21790;42.668;23.298;2022-12-20T10:29:48;16.67;;;7.85;;
35675;SDS011;21790;42.668;23.298;2022-12-20T10:35:39;21.60;;;8.02;;
35675;SDS011;21790;42.668;23.298;2022-12-20T10:50:42;19.15;;;8.57;;
35675;SDS011;21790;42.668;23.298;2022-12-20T11:08:49;16.02;;;8.30;;
35675;SDS011;21790;42.668;23.298;2022-12-20T11:30:21;15.65;;;7.13;;
35675;SDS011;21790;42.668;23.298;2022-12-20T12:22:33;11.80;;;6.35;;
35675;SDS011;21790;42.668;23.298;2022-12-20T13:02:48;16.13;;;7.82;;
35675;SDS011;21790;42.668;23.298;2022-12-20T13:08:47;19.27;;;8.90;;
35675;SDS011;21790;42.668;23.298;2022-12-20T13:18:34;18.75;;;7.35;;
35675;SDS011;21790;42.668;23.298;2022-12-20T13:43:48;21.63;;;8.10;;
35675;SDS011;21790;42.668;23.298;2022-12-20T18:31:37;62.70;;;19.85;;
35675;SDS011;21790;42.668;23.298;2022-12-20T18:34:13;53.42;;;19.48;;
35675;SDS011;21790;42.668;23.298;2022-12-20T18:39:31;38.47;;;14.60;;
35675;SDS011;21790;42.668;23.298;2022-12-20T18:48:24;46.53;;;17.98;;
35675;SDS011;21790;42.668;23.298;2022-12-20T18:54:18;70.10;;;27.63;;
35675;SDS011;21790;42.668;23.298;2022-12-20T19:12:33;74.15;;;28.13;;
35675;SDS011;21790;42.668;23.298;2022-12-20T19:19:26;66.88;;;26.05;;
35675;SDS011;21790;42.668;23.298;2022-12-20T19:25:13;81.15;;;27.77;;
35675;SDS011;21790;42.668;23.298;2022-12-20T19:27:57;83.75;;;29.48;;
35675;SDS011;21790;42.668;23.298;2022-12-20T19:37:23;84.88;;;27.25;;
35675;SDS011;21790;42.668;23.298;2022-12-20T19:43:13;81.63;;;27.10;;
35675;SDS011;21790;42.668;23.298;2022-12-20T21:08:55;74.80;;;27.67;;
35675;SDS011;21790;42.668;23.298;2022-12-20T21:27:34;75.75;;;24.77;;
35675;SDS011;21790;42.668;23.298;2022-12-20T21:29:59;81.80;;;26.98;;
35675;SDS011;21790;42.668;23.298;2022-12-20T21:32:27;74.10;;;27.02;;
35675;SDS011;21790;42.668;23.298;2022-12-20T21:37:53;87.50;;;25.83;;
35675;SDS011;21790;42.668;23.298;2022-12-20T21:40:29;64.03;;;25.52;;
35675;SDS011;21790;42.668;23.298;2022-12-20T21:42:55;64.60;;;26.27;;
35675;SDS011;21790;42.668;23.298;2022-12-20T21:45:21;57.90;;;25.88;;
35675;SDS011;21790;42.668;23.298;2022-12-20T21:47:47;75.43;;;28.80;;
35675;SDS011;21790;42.668;23.298;2022-12-20T21:50:12;66.00;;;25.88;;
35675;SDS011;21790;42.668;23.298;2022-12-20T21:52:38;79.03;;;27.02;;
35675;SDS011;21790;42.668;23.298;2022-12-20T21:55:04;85.00;;;29.02;;
35675;SDS011;21790;42.668;23.298;2022-12-20T21:57:30;83.00;;;28.90;;
35675;SDS011;21790;42.668;23.298;2022-12-20T21:59:56;84.80;;;30.10;;
35675;SDS011;21790;42.668;23.298;2022-12-20T22:02:21;81.95;;;29.75;;
35675;SDS011;21790;42.668;23.298;2022-12-20T22:05:02;78.07;;;26.95;;
35675;SDS011;21790;42.668;23.298;2022-12-20T22:07:27;73.97;;;27.73;;
35675;SDS011;21790;42.668;23.298;2022-12-20T22:09:53;80.18;;;27.98;;
35675;SDS011;21790;42.668;23.298;2022-12-20T22:12:18;84.40;;;29.85;;
35675;SDS011;21790;42.668;23.298;2022-12-20T22:14:44;69.60;;;26.00;;
35675;SDS011;21790;42.668;23.298;2022-12-20T22:17:09;70.28;;;27.75;;
35675;SDS011;21790;42.668;23.298;2022-12-20T22:19:35;58.40;;;24.15;;
35675;SDS011;21790;42.668;23.298;2022-12-20T22:22:01;72.75;;;26.27;;
35675;SDS011;21790;42.668;23.298;2022-12-20T22:24:40;63.72;;;25.23;;
35675;SDS011;21790;42.668;23.298;2022-12-20T22:27:05;77.22;;;25.95;;
35675;SDS011;21790;42.668;23.298;2022-12-20T22:29:32;66.18;;;26.85;;
35675;SDS011;21790;42.668;23.298;2022-12-20T22:31:57;66.88;;;24.77;;
35675;SDS011;21790;42.668;23.298;2022-12-20T22:34:23;54.95;;;24.88;;
35675;SDS011;21790;42.668;23.298;2022-12-20T22:36:49;66.22;;;23.48;;
35675;SDS011;21790;42.668;23.298;2022-12-20T22:39:14;62.58;;;24.20;;
35675;SDS011;21790;42.668;23.298;2022-12-20T22:41:39;67.97;;;25.20;;
35675;SDS011;21790;42.668;23.298;2022-12-20T22:44:05;56.92;;;22.17;;
35675;SDS011;21790;42.668;23.298;2022-12-20T22:46:31;53.88;;;22.85;;
35675;SDS011;21790;42.668;23.298;2022-12-20T22:48:57;66.78;;;26.85;;
35675;SDS011;21790;42.668;23.298;2022-12-20T22:51:23;55.90;;;21.30;;
35675;SDS011;21790;42.668;23.298;2022-12-20T22:53:55;59.10;;;23.00;;
35675;SDS011;21790;42.668;23.298;2022-12-20T22:56:22;52.45;;;22.15;;
35675;SDS011;21790;42.668;23.298;2022-12-20T22:58:47;51.55;;;21.67;;
35675;SDS011;21790;42.668;23.298;2022-12-20T23:01:14;57.85;;;22.45;;
35675;SDS011;21790;42.668;23.298;2022-12-20T23:03:41;57.28;;;21.02;;
35675;SDS011;21790;42.668;23.298;2022-12-20T23:06:08;53.42;;;20.40;;
35675;SDS011;21790;42.668;23.298;2022-12-20T23:08:37;66.38;;;22.30;;
35675;SDS011;21790;42.668;23.298;2022-12-20T23:11:03;56.45;;;23.08;;
35675;SDS011;21790;42.668;23.298;2022-12-20T23:13:52;60.90;;;21.40;;
35675;SDS011;21790;42.668;23.298;2022-12-20T23:16:36;69.32;;;22.23;;
35675;SDS011;21790;42.668;23.298;2022-12-20T23:19:02;48.70;;;20.38;;
35675;SDS011;21790;42.668;23.298;2022-12-20T23:21:27;61.85;;;21.33;;
35675;SDS011;21790;42.668;23.298;2022-12-20T23:24:12;57.33;;;21.08;;
35675;SDS011;21790;42.668;23.298;2022-12-20T23:26:39;67.32;;;22.67;;
35675;SDS011;21790;42.668;23.298;2022-12-20T23:29:05;57.15;;;21.67;;
35675;SDS011;21790;42.668;23.298;2022-12-20T23:31:32;52.35;;;20.98;;
35675;SDS011;21790;42.668;23.298;2022-12-20T23:33:58;59.05;;;21.70;;
35675;SDS011;21790;42.668;23.298;2022-12-20T23:36:24;53.45;;;20.73;;
35675;SDS011;21790;42.668;23.298;2022-12-20T23:38:51;53.50;;;20.52;;
35675;SDS011;21790;42.668;23.298;2022-12-20T23:41:16;46.10;;;19.05;;
35675;SDS011;21790;42.668;23.298;2022-12-20T23:43:42;56.53;;;20.23;;
35675;SDS011;21790;42.668;23.298;2022-12-20T23:46:13;50.25;;;19.50;;
35675;SDS011;21790;42.668;23.298;2022-12-20T23:48:40;46.63;;;19.75;;
35675;SDS011;21790;42.668;23.298;2022-12-20T23:51:06;41.13;;;17.77;;
35675;SDS011;21790;42.668;23.298;2022-12-20T23:53:31;54.13;;;20.70;;
35675;SDS011;21790;42.668;23.298;2022-12-20T23:55:58;49.42;;;18.08;;
35675;SDS011;21790;42.668;23.298;2022-12-20T23:58:26;49.20;;;19.30;;
